createdAt,value
2022-12-11T00:00:06.912Z,7.3
2022-12-11T00:05:08.357Z,11.4
2022-12-11T00:10:06.443Z,10.6
2022-12-11T00:15:06.523Z,5.1
2022-12-11T00:20:06.881Z,10.9
2022-12-11T00:25:06.170Z,5.7
2022-12-11T00:30:06.595Z,6.3
2022-12-11T00:35:06.840Z,5.1
2022-12-11T00:40:06.157Z,5.7
2022-12-11T00:45:06.418Z,4.7
2022-12-11T00:50:06.299Z,1.7
2022-12-11T00:55:06.504Z,1.7
2022-12-11T01:00:06.391Z,2
2022-12-11T01:05:06.214Z,1.3
2022-12-11T01:10:06.524Z,1.3
2022-12-11T01:15:06.680Z,1.3
2022-12-11T01:20:06.415Z,1.8
2022-12-11T01:25:06.681Z,1.9
2022-12-11T01:30:07.046Z,1.7
2022-12-11T01:35:06.282Z,2.2
2022-12-11T01:40:06.726Z,1.3
2022-12-11T01:45:07.035Z,1.6
2022-12-11T01:50:06.503Z,1.9
2022-12-11T01:55:06.558Z,1.2
2022-12-11T02:00:06.948Z,2.2
2022-12-11T02:05:06.823Z,1.3
2022-12-11T02:10:06.099Z,1.4
2022-12-11T02:15:06.480Z,1.4
2022-12-11T02:20:06.400Z,1.3
2022-12-11T02:25:07.087Z,1.1
2022-12-11T02:30:06.440Z,1.2
2022-12-11T02:35:06.705Z,1.1
2022-12-11T02:40:06.685Z,0.9
2022-12-11T02:45:06.190Z,1.2
2022-12-11T02:50:06.438Z,1
2022-12-11T02:55:06.561Z,1.2
2022-12-11T03:00:07.127Z,1.1
2022-12-11T03:05:07.019Z,1.3
2022-12-11T03:10:06.326Z,1.8
2022-12-11T03:15:06.451Z,2.8
2022-12-11T03:20:06.890Z,2.1
2022-12-11T03:25:07.085Z,1.6
2022-12-11T03:30:06.761Z,2.5
2022-12-11T03:35:07.083Z,2.3
2022-12-11T03:40:06.667Z,3.2
2022-12-11T03:45:06.857Z,1.8
2022-12-11T03:50:06.217Z,2.6
2022-12-11T03:55:06.453Z,3.8
2022-12-11T04:00:06.904Z,1.4
2022-12-11T04:05:06.534Z,2.9
2022-12-11T04:10:06.865Z,2.1
2022-12-11T04:15:06.994Z,2.9
2022-12-11T04:20:06.381Z,4.5
2022-12-11T04:25:06.601Z,3.6
2022-12-11T04:30:06.833Z,2.7
2022-12-11T04:35:06.266Z,1.9
2022-12-11T04:40:06.607Z,3.2
2022-12-11T04:45:07.025Z,2.2
2022-12-11T04:50:06.426Z,2.8
2022-12-11T04:55:06.616Z,1.7
2022-12-11T05:00:06.999Z,2
2022-12-11T05:05:06.853Z,2.9
2022-12-11T05:10:06.165Z,2.7
2022-12-11T05:15:06.282Z,1.7
2022-12-11T05:20:06.639Z,2
2022-12-11T05:25:06.939Z,2.3
2022-12-11T05:30:06.189Z,1.4
2022-12-11T05:35:06.440Z,1.6
2022-12-11T05:40:06.821Z,2.2
2022-12-11T05:45:06.126Z,1.8
2022-12-11T05:50:06.456Z,2.6
2022-12-11T05:55:06.657Z,1.7
2022-12-11T06:00:07.022Z,1.9
2022-12-11T06:05:06.153Z,1.7
2022-12-11T06:10:06.313Z,1.6
2022-12-11T06:15:06.645Z,2.4
2022-12-11T06:20:06.931Z,1
2022-12-11T06:25:06.425Z,2.2
2022-12-11T06:30:06.549Z,2.3
2022-12-11T06:35:06.322Z,2.5
2022-12-11T06:40:06.368Z,1.8
2022-12-11T06:45:06.597Z,0.9
2022-12-11T06:50:06.935Z,1.8
2022-12-11T06:55:06.189Z,2.7
2022-12-11T07:00:06.623Z,2
2022-12-11T07:05:06.418Z,2.7
2022-12-11T07:10:06.732Z,2.1
2022-12-11T07:15:07.016Z,2.7
2022-12-11T07:20:07.074Z,2.2
2022-12-11T07:25:06.361Z,2.1
2022-12-11T07:30:06.618Z,1
2022-12-11T07:35:06.959Z,2.4
2022-12-11T07:40:06.447Z,4.1
2022-12-11T07:45:06.776Z,4.5
2022-12-11T07:50:06.168Z,4.5
2022-12-11T07:55:06.330Z,3.9
2022-12-11T08:00:06.658Z,3.1
2022-12-11T08:05:06.568Z,2.8
2022-12-11T08:10:06.843Z,2.9
2022-12-11T08:15:07.052Z,1.2
2022-12-11T08:20:06.408Z,2.9
2022-12-11T08:25:06.660Z,3.6
2022-12-11T08:30:06.979Z,3.7
2022-12-11T08:35:06.416Z,3.1
2022-12-11T08:40:06.565Z,3.5
2022-12-11T08:45:06.891Z,5.9
2022-12-11T08:50:06.127Z,3.9
2022-12-11T08:55:06.365Z,4.2
2022-12-11T09:00:06.529Z,4.1
2022-12-11T09:05:06.406Z,4.5
2022-12-11T09:10:06.815Z,4.8
2022-12-11T09:15:07.032Z,4.2
2022-12-11T09:20:06.303Z,2.9
2022-12-11T09:25:06.516Z,3.7
2022-12-11T09:30:06.728Z,4.2
2022-12-11T09:35:06.083Z,3.4
2022-12-11T09:40:06.463Z,3.5
2022-12-11T09:45:06.855Z,2.9
2022-12-11T09:50:06.219Z,3.3
2022-12-11T09:55:06.474Z,3.9
2022-12-11T10:00:06.786Z,5.3
2022-12-11T10:05:06.861Z,2.6
2022-12-11T10:10:06.307Z,2.8
2022-12-11T10:15:06.729Z,2
2022-12-11T10:20:06.335Z,4.8
2022-12-11T10:25:06.797Z,2.6
2022-12-11T10:30:06.562Z,3.8
2022-12-11T10:35:06.405Z,4.2
2022-12-11T10:40:06.618Z,2.1
2022-12-11T10:45:06.780Z,4.4
2022-12-11T10:50:06.244Z,5.9
2022-12-11T10:55:06.517Z,4.1
2022-12-11T11:00:07.014Z,4.7
2022-12-11T11:05:07.024Z,5
2022-12-11T11:10:06.553Z,2.7
2022-12-11T11:15:07.014Z,5.9
2022-12-11T11:20:06.441Z,5.4
2022-12-11T11:25:06.718Z,5.4
2022-12-11T11:30:06.989Z,7.1
2022-12-11T11:35:06.846Z,9.8
2022-12-11T11:40:07.078Z,7.3
2022-12-11T11:45:06.449Z,7.9
2022-12-11T11:50:06.818Z,6.4
2022-12-11T11:55:06.587Z,6.5
2022-12-11T12:00:06.450Z,12.7
2022-12-11T12:05:06.409Z,9.5
2022-12-11T12:10:06.112Z,8.2
2022-12-11T12:15:06.917Z,9.8
2022-12-11T12:20:06.151Z,5.1
2022-12-11T12:25:06.344Z,9.7
2022-12-11T12:30:06.144Z,6.3
2022-12-11T12:35:06.708Z,7.7
2022-12-11T12:40:07.093Z,11.5
2022-12-11T12:45:06.545Z,10.9
2022-12-11T12:50:06.577Z,9.6
2022-12-11T12:55:06.434Z,11.7
2022-12-11T13:00:06.739Z,8.7
2022-12-11T13:05:06.682Z,8.2
2022-12-11T13:10:07.082Z,9.6
2022-12-11T13:15:06.363Z,9.2
2022-12-11T13:20:06.414Z,10.5
2022-12-11T13:25:06.717Z,8.6
2022-12-11T13:30:06.960Z,9.2
2022-12-11T13:35:06.383Z,11.7
2022-12-11T13:40:06.736Z,17.4
2022-12-11T13:45:06.498Z,19.8
2022-12-11T13:50:06.354Z,28.2
2022-12-11T13:55:06.595Z,25.1
2022-12-11T14:00:06.894Z,21.2
2022-12-11T14:05:06.868Z,19.8
2022-12-11T14:10:06.387Z,27.2
2022-12-11T14:15:06.696Z,24.9
2022-12-11T14:20:06.528Z,30.2
2022-12-11T14:25:06.866Z,15.5
2022-12-11T14:30:06.182Z,10.8
2022-12-11T14:35:07.079Z,11.7
2022-12-11T14:40:06.935Z,20
2022-12-11T14:45:06.173Z,26.3
2022-12-11T14:50:06.440Z,27.1
2022-12-11T14:55:06.370Z,11.7
2022-12-11T15:00:06.931Z,15.7
2022-12-11T15:05:06.944Z,14.8
2022-12-11T15:10:06.689Z,10.2
2022-12-11T15:15:06.662Z,14.9
2022-12-11T15:20:06.470Z,17.3
2022-12-11T15:25:06.711Z,16
2022-12-11T15:30:07.100Z,16.6
2022-12-11T15:35:06.273Z,18.4
2022-12-11T15:40:06.530Z,23
2022-12-11T15:45:06.838Z,32
2022-12-11T15:50:06.245Z,26.1
2022-12-11T15:55:06.556Z,36.2
2022-12-11T16:00:06.939Z,31.5
2022-12-11T16:05:06.889Z,33.6
2022-12-11T16:10:06.229Z,34.5
2022-12-11T16:15:06.510Z,24.4
2022-12-11T16:20:06.934Z,35.9
2022-12-11T16:25:06.242Z,27.9
2022-12-11T16:30:06.501Z,34.9
2022-12-11T16:35:06.928Z,13.9
2022-12-11T16:40:06.334Z,19.9
2022-12-11T16:45:06.676Z,28.5
2022-12-11T16:50:07.040Z,27.8
2022-12-11T16:55:06.294Z,29.2
2022-12-11T17:00:06.671Z,32.3
2022-12-11T17:05:06.434Z,32.7
2022-12-11T17:10:06.744Z,28.3
2022-12-11T17:15:06.598Z,25.8
2022-12-11T17:20:06.843Z,18.6
2022-12-11T17:25:06.177Z,30.5
2022-12-11T17:30:06.379Z,32
2022-12-11T17:35:06.717Z,36.4
2022-12-11T17:40:07.057Z,39.5
2022-12-11T17:45:06.331Z,37.1
2022-12-11T17:50:06.642Z,32.3
2022-12-11T17:55:06.954Z,15
2022-12-11T18:00:06.230Z,15.7
2022-12-11T18:05:06.075Z,32.2
2022-12-11T18:10:06.494Z,20.3
2022-12-11T18:15:06.197Z,15.5
2022-12-11T18:20:06.593Z,20.7
2022-12-11T18:25:06.730Z,15.3
2022-12-11T18:30:07.082Z,17.8
2022-12-11T18:35:06.292Z,18.9
2022-12-11T18:40:06.603Z,20.8
2022-12-11T18:45:06.860Z,19.6
2022-12-11T18:50:06.197Z,22.8
2022-12-11T18:55:06.413Z,24.1
2022-12-11T19:00:06.721Z,27.1
2022-12-11T19:05:07.046Z,27.6
2022-12-11T19:10:06.413Z,21.8
2022-12-11T19:15:06.733Z,20.9
2022-12-11T19:20:06.797Z,23.5
2022-12-11T19:25:06.791Z,20.6
2022-12-11T19:30:07.019Z,29.1
2022-12-11T19:35:06.255Z,31
2022-12-11T19:40:06.638Z,20.9
2022-12-11T19:45:06.916Z,24.5
2022-12-11T19:50:06.196Z,25.2
2022-12-11T19:55:06.053Z,20.8
2022-12-11T20:00:06.348Z,31.7
2022-12-11T20:05:06.584Z,23.6
2022-12-11T20:10:06.793Z,22.5
2022-12-11T20:15:07.025Z,21.5
2022-12-11T20:20:07.094Z,22
2022-12-11T20:25:06.324Z,21.8
2022-12-11T20:30:06.610Z,20.8
2022-12-11T20:35:06.917Z,22.1
2022-12-11T20:40:06.306Z,36.9
2022-12-11T20:45:06.775Z,33.4
2022-12-11T20:50:07.085Z,26.8
2022-12-11T20:55:06.706Z,23.5
2022-12-11T21:00:07.049Z,22.8
2022-12-11T21:05:06.848Z,22
2022-12-11T21:10:07.000Z,24.4
2022-12-11T21:15:06.183Z,24.5
2022-12-11T21:20:06.489Z,25.6
2022-12-11T21:25:06.750Z,27.2
2022-12-11T21:30:06.695Z,34.4
2022-12-11T21:35:06.912Z,38.5
2022-12-11T21:40:06.346Z,28.2
2022-12-11T21:45:06.533Z,26.4
2022-12-11T21:50:06.176Z,21.6
2022-12-11T21:55:06.552Z,29.8
2022-12-11T22:00:06.908Z,28.3
2022-12-11T22:05:06.793Z,31.5
2022-12-11T22:10:06.969Z,34
2022-12-11T22:15:06.158Z,32.9
2022-12-11T22:20:06.474Z,23.2
2022-12-11T22:25:06.769Z,21.2
2022-12-11T22:30:07.106Z,40.3
2022-12-11T22:35:06.365Z,37.2
2022-12-11T22:40:06.774Z,38.7
2022-12-11T22:45:06.106Z,32
2022-12-11T22:50:06.503Z,21.9
2022-12-11T22:55:06.885Z,28.2
2022-12-11T23:00:07.007Z,31.1
2022-12-11T23:05:07.005Z,29
2022-12-11T23:10:06.404Z,20.8
2022-12-11T23:15:06.671Z,26
2022-12-11T23:20:06.863Z,31
2022-12-11T23:25:06.152Z,23.4
2022-12-11T23:30:06.379Z,24.3
2022-12-11T23:35:06.708Z,31
2022-12-11T23:40:06.991Z,31.9
2022-12-11T23:45:06.335Z,34.1
2022-12-11T23:50:06.689Z,28.7
2022-12-11T23:55:07.035Z,27.2
